Time;durP1;ratioP1;P1;durP2;ratioP2;P2;SDS_P1;SDS_P2;PMS_P1;PMS_P2;Temp;Humidity;BMP_temperature;BMP_pressure;BME280_temperature;BME280_humidity;BME280_pressure;Samples;Min_cycle;Max_cycle;Signal;HPM_P1;HPM_P2
2024/04/01 00:01:31;;;;;;;35.60;5.97;;;;;;;17.63;40.29;98776.44;5051614;28;20672;-60
2024/04/01 00:04:03;;;;;;;33.38;6.82;;;;;;;17.61;40.36;98773.13;5051192;28;20247;-60
2024/04/01 00:06:30;;;;;;;34.92;7.85;;;;;;;17.59;40.44;98767.97;5051575;28;20579;-59
2024/04/01 00:08:56;;;;;;;38.78;6.40;;;;;;;17.57;40.56;98776.84;5051487;28;20220;-59
2024/04/01 00:11:23;;;;;;;33.88;7.28;;;;;;;17.55;40.56;98778.69;5051055;28;20233;-59
2024/04/01 00:13:53;;;;;;;28.73;6.75;;;;;;;17.53;40.63;98770.97;5050957;28;20217;-59
2024/04/01 00:16:20;;;;;;;26.77;5.88;;;;;;;17.52;40.62;98773.66;5051163;28;20649;-60
2024/04/01 00:18:46;;;;;;;33.72;6.53;;;;;;;17.50;40.83;98770.31;5050959;28;20220;-59
2024/04/01 00:21:13;;;;;;;32.03;6.40;;;;;;;17.46;40.70;98769.66;5051229;28;20289;-60
2024/04/01 00:23:39;;;;;;;22.17;5.75;;;;;;;17.48;40.62;98772.16;5050981;28;20214;-61
2024/04/01 00:26:06;;;;;;;36.10;7.35;;;;;;;17.48;40.60;98775.59;5051139;28;20217;-58
2024/04/01 00:28:33;;;;;;;31.60;5.90;;;;;;;17.47;40.68;98773.09;5051057;28;20190;-59
2024/04/01 00:31:01;;;;;;;36.35;6.90;;;;;;;17.43;40.67;98775.06;5050502;28;20561;-60
2024/04/01 00:33:27;;;;;;;32.15;6.15;;;;;;;17.41;40.77;98773.47;5050058;28;20275;-62
2024/04/01 00:35:54;;;;;;;33.13;6.95;;;;;;;17.37;40.80;98776.25;5050605;28;20677;-58
2024/04/01 00:38:20;;;;;;;34.42;6.57;;;;;;;17.36;40.97;98776.34;5050693;28;20209;-59
2024/04/01 00:40:47;;;;;;;39.00;6.90;;;;;;;17.31;41.05;98774.03;5050708;28;20687;-59
2024/04/01 00:43:13;;;;;;;31.98;6.38;;;;;;;17.27;40.97;98780.34;5050440;28;20217;-60
2024/04/01 00:45:44;;;;;;;37.50;7.53;;;;;;;17.22;41.15;98777.16;5050632;28;20214;-61
2024/04/01 00:48:13;;;;;;;33.80;6.43;;;;;;;17.20;41.40;98773.81;5050582;28;20649;-63
2024/04/01 00:50:43;;;;;;;38.28;6.80;;;;;;;17.17;41.55;98771.41;5050960;28;20668;-63
2024/04/01 00:53:11;;;;;;;27.88;6.57;;;;;;;17.12;41.65;98770.81;5050345;28;20244;-62
2024/04/01 00:55:40;;;;;;;31.17;7.28;;;;;;;17.12;41.69;98781.22;5050371;28;20217;-63
2024/04/01 00:58:06;;;;;;;44.55;7.90;;;;;;;17.06;41.58;98779.00;5050559;28;20626;-65
2024/04/01 01:00:34;;;;;;;32.15;5.85;;;;;;;17.04;42.00;98784.28;5050404;28;20696;-64
2024/04/01 01:03:01;;;;;;;31.15;7.00;;;;;;;16.95;42.01;98768.38;5050177;28;20209;-61
2024/04/01 01:05:30;;;;;;;33.67;7.10;;;;;;;16.97;41.98;98782.13;5050404;28;20645;-63
2024/04/01 01:07:56;;;;;;;35.85;6.60;;;;;;;16.95;42.04;98773.59;5050414;28;20569;-61
2024/04/01 01:10:24;;;;;;;28.05;5.85;;;;;;;16.92;42.15;98778.97;5050551;28;20217;-62
2024/04/01 01:12:50;;;;;;;31.13;6.15;;;;;;;16.86;42.08;98775.81;5049934;28;20226;-66
2024/04/01 01:15:17;;;;;;;28.45;6.38;;;;;;;16.84;42.21;98777.63;5050028;28;20214;-62
2024/04/01 01:17:45;;;;;;;28.50;5.95;;;;;;;16.83;42.41;98769.94;5050052;28;20205;-63
2024/04/01 01:20:12;;;;;;;22.63;6.07;;;;;;;16.81;42.37;98767.41;5050044;28;20769;-62
2024/04/01 01:22:43;;;;;;;25.25;5.80;;;;;;;16.82;42.58;98765.63;5050372;28;20244;-65
2024/04/01 01:25:10;;;;;;;28.55;6.47;;;;;;;16.83;42.49;98770.78;5050275;28;20205;-62
2024/04/01 01:27:41;;;;;;;22.50;6.10;;;;;;;16.82;42.34;98774.28;5050118;28;20271;-63
2024/04/01 01:30:15;;;;;;;28.55;5.95;;;;;;;16.82;42.60;98769.06;5050508;28;20198;-62
2024/04/01 01:32:45;;;;;;;26.85;6.20;;;;;;;16.83;42.58;98770.78;5049655;28;20235;-62
2024/04/01 01:35:14;;;;;;;30.35;6.07;;;;;;;16.81;42.66;98769.16;5049803;28;20213;-62
2024/04/01 01:37:41;;;;;;;21.55;5.63;;;;;;;16.78;42.75;98767.56;5049976;28;20214;-61
2024/04/01 01:40:09;;;;;;;32.08;5.75;;;;;;;16.71;42.60;98760.19;5049898;28;20217;-63
2024/04/01 01:42:35;;;;;;;27.77;5.97;;;;;;;16.72;42.65;98767.91;5049962;28;20210;-61
2024/04/01 01:45:03;;;;;;;25.42;5.97;;;;;;;16.69;43.00;98762.88;5053656;28;20305;-60
2024/04/01 01:47:32;;;;;;;30.25;5.30;;;;;;;16.61;43.37;98752.91;5054016;28;20661;-62
2024/04/01 01:49:59;;;;;;;25.55;5.47;;;;;;;16.62;43.32;98756.34;5053741;28;20210;-62
2024/04/01 01:52:25;;;;;;;27.95;5.70;;;;;;;16.60;43.20;98763.38;5053789;28;20241;-61
2024/04/01 01:54:54;;;;;;;24.73;6.10;;;;;;;16.57;43.22;98759.22;5053733;28;20229;-61
2024/04/01 01:57:20;;;;;;;24.33;6.00;;;;;;;16.56;43.39;98762.72;5053590;28;20213;-61
2024/04/01 01:59:47;;;;;;;30.88;6.28;;;;;;;16.52;43.30;98763.81;5053606;28;20225;-61
2024/04/01 02:02:14;;;;;;;28.05;5.72;;;;;;;16.53;43.31;98768.13;5053529;28;20206;-60
2024/04/01 02:04:41;;;;;;;31.25;5.82;;;;;;;16.51;43.51;98780.34;5053346;28;20220;-66
2024/04/01 02:07:07;;;;;;;24.73;5.05;;;;;;;16.48;43.53;98774.50;5053632;28;20209;-60
2024/04/01 02:09:35;;;;;;;32.50;5.78;;;;;;;16.47;43.57;98778.84;5053332;28;20218;-63
2024/04/01 02:12:07;;;;;;;23.10;5.40;;;;;;;16.47;43.68;98785.81;5053271;28;20233;-59
2024/04/01 02:14:34;;;;;;;27.83;6.03;;;;;;;16.41;43.84;98784.38;5053227;28;20201;-58
2024/04/01 02:17:00;;;;;;;28.95;6.05;;;;;;;16.39;43.85;98784.50;5053242;28;20222;-62
2024/04/01 02:19:27;;;;;;;25.33;5.43;;;;;;;16.36;44.04;98784.66;5053152;28;20583;-59
2024/04/01 02:21:53;;;;;;;31.38;5.03;;;;;;;16.34;44.13;98790.84;5052991;28;20221;-60
2024/04/01 02:24:20;;;;;;;28.58;6.55;;;;;;;16.33;44.41;98787.41;5053378;28;20653;-59
2024/04/01 02:26:46;;;;;;;38.05;6.72;;;;;;;16.30;44.24;98787.59;5052863;28;20202;-60
2024/04/01 02:29:15;;;;;;;21.52;6.53;;;;;;;16.29;44.33;98795.47;5053336;28;20653;-60
2024/04/01 02:31:41;;;;;;;30.73;6.38;;;;;;;16.23;44.48;98791.44;5052862;28;20237;-59
2024/04/01 02:34:08;;;;;;;24.48;5.50;;;;;;;16.24;44.84;98784.47;5052935;28;20218;-60
2024/04/01 02:36:35;;;;;;;23.45;5.28;;;;;;;16.22;44.72;98776.78;5053076;28;20637;-60
2024/04/01 02:39:03;;;;;;;29.08;5.95;;;;;;;16.21;44.77;98777.72;5053075;28;20298;-59
2024/04/01 02:41:29;;;;;;;31.50;5.78;;;;;;;16.22;44.62;98779.38;5052795;28;20205;-59
2024/04/01 02:43:56;;;;;;;33.17;5.90;;;;;;;16.23;44.98;98769.81;5052736;28;20209;-58
2024/04/01 02:46:24;;;;;;;25.52;5.80;;;;;;;16.21;44.79;98772.50;5052871;28;20522;-59
2024/04/01 02:48:51;;;;;;;29.33;6.03;;;;;;;16.21;45.05;98761.28;5052668;28;20599;-58
2024/04/01 02:51:17;;;;;;;30.30;5.82;;;;;;;16.19;45.05;98756.16;5052596;28;20208;-60
2024/04/01 02:53:47;;;;;;;30.70;6.13;;;;;;;16.14;45.07;98761.59;5052755;28;20640;-59
2024/04/01 02:56:13;;;;;;;22.25;5.65;;;;;;;16.16;45.07;98759.78;5051757;28;20579;-59
2024/04/01 02:58:41;;;;;;;27.15;5.68;;;;;;;16.16;45.14;98758.91;5052455;28;20214;-59
2024/04/01 03:01:07;;;;;;;29.90;6.65;;;;;;;16.11;45.42;98755.72;5052617;28;20573;-60
2024/04/01 03:03:35;;;;;;;27.75;6.55;;;;;;;16.09;45.33;98762.75;5052305;28;20214;-60
2024/04/01 03:06:02;;;;;;;26.38;5.43;;;;;;;16.03;45.55;98760.53;5052358;28;20213;-60
2024/04/01 03:08:30;;;;;;;25.08;5.60;;;;;;;16.06;45.35;98770.75;5052226;28;20214;-59
2024/04/01 03:11:00;;;;;;;27.17;5.85;;;;;;;15.99;45.71;98759.00;5052406;28;20213;-60
2024/04/01 03:13:28;;;;;;;24.27;5.68;;;;;;;16.02;45.56;98761.44;5052249;28;20226;-61
2024/04/01 03:15:54;;;;;;;24.15;5.50;;;;;;;16.00;45.88;98760.69;5052547;28;20653;-63
2024/04/01 03:18:21;;;;;;;25.40;6.22;;;;;;;15.98;45.67;98765.97;5052438;28;20221;-61
2024/04/01 03:20:49;;;;;;;26.70;5.60;;;;;;;15.97;45.79;98764.28;5052428;28;20252;-64
2024/04/01 03:23:17;;;;;;;26.77;5.35;;;;;;;15.96;45.99;98764.38;5052228;28;20209;-61
2024/04/01 03:25:49;;;;;;;30.35;5.80;;;;;;;15.90;45.94;98762.94;5051936;28;20206;-58
2024/04/01 03:28:16;;;;;;;24.45;6.15;;;;;;;15.88;46.10;98781.22;5051891;28;20217;-60
2024/04/01 03:30:42;;;;;;;26.13;5.97;;;;;;;15.85;46.00;98764.94;5052093;28;20279;-59
2024/04/01 03:33:09;;;;;;;25.27;5.45;;;;;;;15.83;46.13;98771.97;5051812;28;20222;-59
2024/04/01 03:35:35;;;;;;;27.35;5.50;;;;;;;15.82;46.06;98776.31;5051771;28;20209;-61
2024/04/01 03:38:03;;;;;;;29.58;5.72;;;;;;;15.83;46.47;98771.97;5051667;28;20210;-59
2024/04/01 03:40:31;;;;;;;26.67;6.33;;;;;;;15.80;46.43;98773.00;5051643;28;20229;-60
2024/04/01 03:42:58;;;;;;;25.05;5.85;;;;;;;15.79;46.50;98766.09;5051703;28;20210;-61
2024/04/01 03:45:24;;;;;;;23.42;5.38;;;;;;;15.76;46.56;98766.28;5051832;28;20240;-57
2024/04/01 03:47:54;;;;;;;24.77;5.43;;;;;;;15.74;46.50;98762.91;5051465;28;20229;-65
2024/04/01 03:50:20;;;;;;;25.17;5.45;;;;;;;15.74;46.57;98773.31;5051851;28;20229;-61
2024/04/01 03:52:46;;;;;;;26.90;4.75;;;;;;;15.73;46.57;98781.19;5051275;28;20273;-60
2024/04/01 03:55:14;;;;;;;22.57;4.80;;;;;;;15.69;46.70;98772.72;5051442;28;20221;-60
2024/04/01 03:57:42;;;;;;;31.83;5.80;;;;;;;15.66;46.86;98771.13;5051445;28;20213;-59
2024/04/01 04:00:09;;;;;;;31.50;5.60;;;;;;;15.66;46.79;98765.09;5051580;28;20557;-60
2024/04/01 04:02:36;;;;;;;19.35;4.68;;;;;;;15.66;46.94;98771.13;5051502;28;20210;-61
2024/04/01 04:05:02;;;;;;;22.27;5.35;;;;;;;15.65;47.11;98778.97;5051048;28;20213;-65
2024/04/01 04:07:29;;;;;;;30.23;5.40;;;;;;;15.64;47.02;98782.47;5051610;28;20562;-60
2024/04/01 04:09:55;;;;;;;25.85;5.55;;;;;;;15.61;46.87;98780.03;5051020;28;20217;-60
2024/04/01 04:12:23;;;;;;;26.35;5.00;;;;;;;15.61;47.21;98775.69;5051056;28;20238;-61
2024/04/01 04:14:49;;;;;;;24.67;4.97;;;;;;;15.60;47.04;98771.41;5050963;28;20214;-59
2024/04/01 04:17:16;;;;;;;29.35;4.97;;;;;;;15.61;47.20;98770.50;5051310;28;20584;-59
2024/04/01 04:19:42;;;;;;;16.38;4.00;;;;;;;15.63;47.60;98765.22;5050886;28;20245;-59
2024/04/01 04:22:10;;;;;;;25.30;5.13;;;;;;;15.63;47.21;98760.84;5050806;28;20206;-58
2024/04/01 04:24:36;;;;;;;21.70;5.70;;;;;;;15.64;47.09;98772.91;5050983;28;20644;-59
2024/04/01 04:27:04;;;;;;;25.63;4.70;;;;;;;15.63;47.19;98763.44;5050545;28;20212;-58
2024/04/01 04:29:31;;;;;;;19.88;5.30;;;;;;;15.64;47.15;98766.88;5050849;28;20268;-61
2024/04/01 04:32:09;;;;;;;28.27;4.83;;;;;;;15.65;47.33;98747.81;5050312;28;20210;-61
2024/04/01 04:34:35;;;;;;;26.70;5.25;;;;;;;15.65;47.45;98737.41;5050711;28;20209;-58
2024/04/01 04:37:05;;;;;;;29.88;5.38;;;;;;;15.67;47.53;98745.97;5051026;28;20210;-60
2024/04/01 04:39:32;;;;;;;24.10;5.10;;;;;;;15.69;47.39;98744.16;5050584;28;20221;-60
2024/04/01 04:41:59;;;;;;;22.20;4.90;;;;;;;15.73;47.07;98745.66;5050029;28;20210;-60
2024/04/01 04:44:25;;;;;;;26.00;5.50;;;;;;;15.77;46.82;98746.34;5050438;28;20206;-62
2024/04/01 04:46:53;;;;;;;20.00;4.47;;;;;;;15.80;46.92;98747.03;5050745;28;20600;-58
2024/04/01 04:49:19;;;;;;;22.65;5.28;;;;;;;15.85;47.21;98751.97;5050582;28;20236;-58
2024/04/01 04:51:46;;;;;;;23.70;5.10;;;;;;;15.87;47.04;98755.28;5050652;28;20840;-59
2024/04/01 04:54:12;;;;;;;29.90;5.32;;;;;;;15.89;46.61;98756.91;5050246;28;20221;-62
2024/04/01 04:56:39;;;;;;;26.77;4.90;;;;;;;15.93;46.74;98768.78;5050476;28;20227;-58
2024/04/01 04:59:05;;;;;;;25.38;5.05;;;;;;;15.97;46.67;98779.03;5050345;28;20206;-60
2024/04/01 05:01:33;;;;;;;27.05;5.00;;;;;;;16.05;46.38;98784.63;5050402;28;20214;-63
2024/04/01 05:04:01;;;;;;;27.65;5.38;;;;;;;16.11;46.66;98792.13;5050208;28;20264;-59
2024/04/01 05:06:28;;;;;;;25.88;5.45;;;;;;;16.18;46.05;98793.47;5050464;28;20645;-61
2024/04/01 05:08:56;;;;;;;22.23;5.45;;;;;;;16.22;46.40;98794.13;5050315;28;20212;-60
2024/04/01 05:11:23;;;;;;;21.95;5.53;;;;;;;16.20;45.75;98781.22;5050022;28;20224;-58
2024/04/01 05:13:49;;;;;;;25.17;5.10;;;;;;;16.27;45.93;98795.53;5050043;28;20783;-60
2024/04/01 05:16:17;;;;;;;21.90;4.88;;;;;;;16.27;45.88;98797.31;5050134;28;20222;-59
2024/04/01 05:18:43;;;;;;;21.77;4.57;;;;;;;16.24;46.14;98793.13;5049805;28;20256;-61
2024/04/01 05:21:11;;;;;;;30.40;4.90;;;;;;;16.26;45.83;98801.66;5049916;28;20705;-58
2024/04/01 05:23:37;;;;;;;32.25;5.40;;;;;;;16.25;46.20;98800.00;5049830;28;20218;-62
2024/04/01 05:26:08;;;;;;;24.20;5.30;;;;;;;16.28;46.22;98788.59;5050266;28;20291;-61
2024/04/01 05:28:34;;;;;;;22.08;4.82;;;;;;;16.32;45.98;98780.56;5049913;28;20225;-62
2024/04/01 05:31:01;;;;;;;25.88;5.05;;;;;;;16.37;45.85;98782.88;5049903;28;20282;-61
2024/04/01 05:33:31;;;;;;;20.17;4.82;;;;;;;16.43;45.73;98782.56;5049609;28;20238;-61
2024/04/01 05:35:59;;;;;;;22.75;4.63;;;;;;;16.50;46.01;98781.28;5049746;28;20209;-61
2024/04/01 05:38:26;;;;;;;25.23;5.03;;;;;;;16.52;45.74;98779.44;5049686;28;20213;-62
2024/04/01 05:40:53;;;;;;;21.85;5.55;;;;;;;16.58;46.22;98778.25;5049886;28;20275;-61
2024/04/01 05:43:19;;;;;;;23.67;5.47;;;;;;;16.62;46.05;98766.75;5049709;28;20206;-61
2024/04/01 05:45:47;;;;;;;30.35;5.78;;;;;;;16.66;45.70;98768.25;5049730;28;20206;-65
2024/04/01 05:48:12;;;;;;;31.67;4.97;;;;;;;16.70;45.71;98772.34;5049584;28;20210;-61
2024/04/01 05:50:39;;;;;;;25.15;5.82;;;;;;;16.66;45.57;98771.69;5049643;28;20216;-62
2024/04/01 05:53:05;;;;;;;19.63;4.70;;;;;;;16.80;45.57;98770.94;5049477;28;20755;-63
2024/04/01 05:55:38;;;;;;;27.52;4.95;;;;;;;16.86;45.20;98769.72;5049807;28;20210;-61
2024/04/01 05:58:05;;;;;;;29.67;6.07;;;;;;;16.92;45.32;98768.56;5049525;28;20205;-62
2024/04/01 06:00:32;;;;;;;24.77;4.55;;;;;;;16.93;45.53;98772.81;5049684;28;20668;-63
2024/04/01 06:02:58;;;;;;;25.80;5.05;;;;;;;16.95;45.27;98770.97;5049493;28;20221;-61
2024/04/01 06:05:25;;;;;;;27.40;6.10;;;;;;;16.95;45.54;98768.38;5049770;28;20210;-61
2024/04/01 06:07:50;;;;;;;29.77;5.75;;;;;;;17.02;45.64;98774.91;5049369;28;20293;-61
2024/04/01 06:10:17;;;;;;;23.15;4.18;;;;;;;17.10;45.32;98770.91;5049467;28;20295;-63
2024/04/01 06:12:45;;;;;;;24.23;5.03;;;;;;;17.19;45.08;98769.53;5049308;28;20239;-61
2024/04/01 06:15:12;;;;;;;28.08;5.10;;;;;;;17.26;45.02;98764.81;5049271;28;20217;-60
2024/04/01 06:17:39;;;;;;;25.75;4.32;;;;;;;17.34;44.79;98767.78;5049663;28;20213;-61
2024/04/01 06:20:07;;;;;;;28.15;5.50;;;;;;;17.43;44.69;98761.19;5049284;28;20602;-60
2024/04/01 06:22:35;;;;;;;21.17;4.97;;;;;;;17.54;44.42;98761.38;5049616;28;20645;-61
2024/04/01 06:25:03;;;;;;;27.60;5.80;;;;;;;17.69;44.25;98759.63;5049498;28;20221;-60
2024/04/01 06:27:29;;;;;;;31.30;5.72;;;;;;;17.89;44.17;98759.25;5049058;28;20209;-61
2024/04/01 06:29:57;;;;;;;29.10;5.13;;;;;;;18.25;43.26;98755.25;5049621;28;20214;-62
2024/04/01 06:32:24;;;;;;;21.27;4.93;;;;;;;18.61;42.95;98752.06;5053055;28;20210;-63
2024/04/01 06:34:51;;;;;;;31.08;6.57;;;;;;;18.99;42.06;98764.38;5052984;28;20210;-62
2024/04/01 06:37:17;;;;;;;29.85;5.18;;;;;;;19.83;40.65;98752.59;5053259;28;20217;-64
2024/04/01 06:39:45;;;;;;;27.88;5.57;;;;;;;21.23;38.72;98758.00;5052760;28;20259;-65
2024/04/01 06:42:11;;;;;;;21.48;5.32;;;;;;;22.73;35.23;98757.63;5053133;28;20589;-63
2024/04/01 06:44:38;;;;;;;28.05;5.43;;;;;;;23.81;33.44;98755.53;5053020;28;20219;-65
2024/04/01 06:47:06;;;;;;;28.77;5.70;;;;;;;24.79;30.67;98746.84;5052989;28;20240;-64
2024/04/01 06:49:33;;;;;;;36.25;6.25;;;;;;;24.38;30.31;98754.00;5052670;28;20260;-65
2024/04/01 06:51:59;;;;;;;33.72;6.18;;;;;;;23.14;32.21;98768.19;5052908;28;20213;-65
2024/04/01 06:54:26;;;;;;;27.58;5.88;;;;;;;23.21;33.29;98767.69;5052741;28;20226;-64
2024/04/01 06:56:52;;;;;;;33.60;5.63;;;;;;;23.31;32.34;98769.41;5052652;28;20306;-64
2024/04/01 06:59:18;;;;;;;26.20;5.93;;;;;;;23.08;32.57;98771.31;5052954;28;20213;-63
2024/04/01 07:01:44;;;;;;;27.98;6.40;;;;;;;22.79;33.33;98767.63;5052694;28;20209;-63
2024/04/01 07:04:13;;;;;;;28.70;5.18;;;;;;;23.26;33.30;98760.22;5052863;28;20206;-66
2024/04/01 07:06:39;;;;;;;35.28;6.22;;;;;;;23.68;32.30;98762.84;5052806;28;20210;-65
2024/04/01 07:09:07;;;;;;;31.02;5.97;;;;;;;23.48;32.45;98764.50;5053071;28;20799;-65
2024/04/01 07:11:32;;;;;;;32.28;5.60;;;;;;;23.26;32.70;98771.56;5052488;28;20224;-65
2024/04/01 07:14:00;;;;;;;28.35;5.75;;;;;;;22.93;33.44;98777.84;5052606;28;20221;-67
2024/04/01 07:16:26;;;;;;;24.85;5.80;;;;;;;22.60;33.76;98784.88;5052474;28;20581;-64
2024/04/01 07:18:52;;;;;;;25.08;5.13;;;;;;;22.11;34.71;98798.44;5052406;28;20217;-66
2024/04/01 07:21:20;;;;;;;17.77;4.60;;;;;;;21.45;35.94;98793.09;5052436;28;20637;-63
2024/04/01 07:23:47;;;;;;;23.30;4.78;;;;;;;20.83;37.19;98788.13;5052531;28;20649;-65
2024/04/01 07:26:13;;;;;;;31.10;5.35;;;;;;;20.56;38.43;98791.81;5052190;28;20206;-63
2024/04/01 07:28:40;;;;;;;29.80;6.22;;;;;;;20.65;38.29;98788.53;5051993;28;20266;-66
2024/04/01 07:31:06;;;;;;;22.98;5.88;;;;;;;20.85;38.02;98796.72;5051944;28;20218;-64
2024/04/01 07:33:33;;;;;;;25.52;5.57;;;;;;;21.03;37.50;98787.50;5052215;28;20226;-68
2024/04/01 07:36:00;;;;;;;33.90;4.95;;;;;;;21.00;37.49;98790.34;5052104;28;20210;-67
2024/04/01 07:38:28;;;;;;;25.75;4.70;;;;;;;20.74;37.79;98792.28;5052123;28;20544;-65
2024/04/01 07:40:54;;;;;;;27.63;5.50;;;;;;;20.35;38.67;98803.81;5051274;28;20500;-65
2024/04/01 07:43:21;;;;;;;30.50;6.05;;;;;;;19.97;39.37;98808.19;5051943;28;20205;-64
2024/04/01 07:45:50;;;;;;;29.00;5.47;;;;;;;20.40;39.77;98797.31;5051645;28;20206;-64
2024/04/01 07:48:18;;;;;;;24.80;5.20;;;;;;;21.76;37.27;98783.72;5052004;28;20682;-60
2024/04/01 07:50:44;;;;;;;29.20;5.43;;;;;;;22.93;35.15;98767.34;5051828;28;20218;-59
2024/04/01 07:53:12;;;;;;;25.38;5.10;;;;;;;23.90;33.36;98765.25;5051350;28;20229;-59
2024/04/01 07:55:39;;;;;;;23.25;5.38;;;;;;;24.43;32.01;98764.97;5051187;28;20206;-59
2024/04/01 07:58:06;;;;;;;23.80;5.13;;;;;;;24.27;31.71;98762.03;5051170;28;20209;-60
2024/04/01 08:00:32;;;;;;;27.00;5.88;;;;;;;23.72;32.41;98767.69;5051137;28;20206;-59
2024/04/01 08:02:59;;;;;;;35.05;6.40;;;;;;;23.07;33.53;98756.50;5051352;28;20637;-59
2024/04/01 08:05:25;;;;;;;27.60;5.53;;;;;;;22.59;34.89;98749.09;5051521;28;20210;-60
2024/04/01 08:07:52;;;;;;;26.25;5.38;;;;;;;22.30;35.49;98746.19;5051309;28;20540;-59
2024/04/01 08:10:18;;;;;;;32.50;5.60;;;;;;;22.63;35.21;98745.25;5051102;28;20220;-61
2024/04/01 08:12:46;;;;;;;18.80;5.10;;;;;;;23.66;34.09;98746.31;5050833;28;20220;-59
2024/04/01 08:15:12;;;;;;;22.98;4.97;;;;;;;24.74;31.91;98734.09;5051016;28;20293;-60
2024/04/01 08:17:39;;;;;;;22.02;4.35;;;;;;;25.37;30.64;98733.56;5067526;28;20214;-58
2024/04/01 08:20:08;;;;;;;29.90;4.63;;;;;;;25.75;29.70;98734.38;5050703;28;20452;-60
2024/04/01 08:22:35;;;;;;;30.73;5.90;;;;;;;25.70;29.36;98739.25;5067470;28;20213;-59
2024/04/01 08:25:01;;;;;;;34.42;6.10;;;;;;;25.24;29.67;98740.97;5050974;28;20562;-61
2024/04/01 08:27:28;;;;;;;19.38;4.78;;;;;;;24.63;31.17;98744.75;5050806;28;20217;-60
2024/04/01 08:29:55;;;;;;;21.25;5.32;;;;;;;24.20;31.97;98750.38;5050891;28;20221;-60
2024/04/01 08:32:22;;;;;;;25.55;5.10;;;;;;;23.87;32.53;98749.75;5050986;28;20649;-60
2024/04/01 08:34:48;;;;;;;23.00;5.57;;;;;;;23.52;33.08;98760.63;5050345;28;20234;-67
2024/04/01 08:37:15;;;;;;;30.02;5.15;;;;;;;23.11;34.00;98773.69;5050288;28;20229;-61
2024/04/01 08:39:41;;;;;;;29.33;5.97;;;;;;;22.67;34.84;98767.66;5050459;28;20272;-60
2024/04/01 08:42:11;;;;;;;28.85;4.88;;;;;;;22.32;35.42;98774.97;5051017;28;20271;-61
2024/04/01 08:44:37;;;;;;;23.38;5.13;;;;;;;22.14;36.07;98777.25;5050368;28;20206;-60
2024/04/01 08:47:06;;;;;;;25.77;4.68;;;;;;;22.05;36.33;98785.81;5050672;28;20206;-59
2024/04/01 08:49:42;;;;;;;29.67;5.82;;;;;;;21.88;36.14;98785.38;5050282;28;20221;-62
2024/04/01 08:52:13;;;;;;;32.55;5.32;;;;;;;21.58;36.67;98785.97;5050036;28;20210;-60
2024/04/01 08:54:41;;;;;;;32.75;5.45;;;;;;;21.46;37.28;98786.88;5049722;28;20692;-63
2024/04/01 08:57:07;;;;;;;28.30;5.85;;;;;;;21.51;37.54;98787.38;5050540;28;20990;-69
2024/04/01 08:59:35;;;;;;;21.13;4.72;;;;;;;21.67;37.22;98785.25;5050351;28;20575;-64
2024/04/01 09:02:03;;;;;;;26.00;5.13;;;;;;;22.00;36.92;98786.19;5050340;28;20676;-65
2024/04/01 09:04:30;;;;;;;21.88;5.82;;;;;;;22.24;36.12;98779.97;5050127;28;20252;-64
2024/04/01 09:06:58;;;;;;;26.15;5.22;;;;;;;22.19;35.68;98769.84;5049978;28;20225;-66
2024/04/01 09:09:24;;;;;;;33.45;6.25;;;;;;;22.08;35.94;98775.91;5050149;28;20248;-64
2024/04/01 09:11:52;;;;;;;28.52;5.85;;;;;;;22.01;36.42;98782.59;5050398;28;20205;-65
2024/04/01 09:14:18;;;;;;;24.30;5.88;;;;;;;22.00;36.23;98778.31;5049741;28;20234;-63
2024/04/01 09:16:49;;;;;;;21.92;5.32;;;;;;;22.04;36.38;98766.63;5049849;28;20297;-63
2024/04/01 09:19:16;;;;;;;34.03;6.47;;;;;;;22.31;36.74;98757.53;5049593;28;20245;-64
2024/04/01 09:21:44;;;;;;;30.70;6.05;;;;;;;22.48;36.41;98751.75;5050107;28;20217;-66
2024/04/01 09:24:11;;;;;;;27.63;5.65;;;;;;;22.39;36.46;98755.13;5049941;28;20202;-65
2024/04/01 09:26:38;;;;;;;26.17;6.45;;;;;;;22.42;36.55;98753.09;5049971;28;20213;-62
2024/04/01 09:29:05;;;;;;;24.58;5.97;;;;;;;22.72;36.25;98750.69;5049880;28;20235;-68
2024/04/01 09:31:32;;;;;;;34.17;6.95;;;;;;;23.00;35.71;98757.16;5049747;28;20209;-65
2024/04/01 09:33:58;;;;;;;31.63;6.32;;;;;;;23.02;35.46;98760.50;5049949;28;20234;-59
2024/04/01 09:36:25;;;;;;;25.88;6.05;;;;;;;22.88;35.66;98762.44;5049813;28;20249;-60
2024/04/01 09:38:57;;;;;;;35.05;6.13;;;;;;;22.92;35.65;98752.53;5049717;28;20221;-61
2024/04/01 09:41:24;;;;;;;36.05;6.72;;;;;;;23.24;35.14;98746.41;5049723;28;20214;-62
2024/04/01 09:43:56;;;;;;;33.22;5.95;;;;;;;23.49;35.17;98756.50;5049634;28;20216;-61
2024/04/01 09:46:23;;;;;;;34.60;6.53;;;;;;;23.68;34.58;98737.38;5050275;28;20213;-63
2024/04/01 09:48:50;;;;;;;32.42;6.38;;;;;;;24.05;34.31;98721.81;5051145;28;20657;-60
2024/04/01 09:51:20;;;;;;;36.80;6.43;;;;;;;24.31;33.65;98722.13;5050263;28;20205;-59
2024/04/01 09:53:46;;;;;;;30.13;6.93;;;;;;;24.23;34.10;98723.75;5050032;28;20230;-59
2024/04/01 09:56:50;;;;;;;40.72;7.10;;;;;;;23.85;33.91;98730.63;5049749;28;20565;-59
2024/04/01 09:59:50;;;;;;;37.65;6.85;;;;;;;23.77;34.76;98722.56;5049466;28;20222;-59
2024/04/01 10:02:43;;;;;;;40.33;7.07;;;;;;;23.78;34.52;98732.13;5049417;28;20220;-58
2024/04/01 10:05:43;;;;;;;36.72;6.50;;;;;;;23.52;34.51;98729.09;5052001;28;20602;-60
2024/04/01 10:08:26;;;;;;;42.78;7.57;;;;;;;23.36;35.06;98735.66;5053491;28;20214;-59
2024/04/01 10:11:26;;;;;;;41.15;7.32;;;;;;;23.60;34.75;98726.63;5070193;28;20669;-60
2024/04/01 10:14:26;;;;;;;42.13;7.18;;;;;;;23.79;34.30;98710.13;5045862;28;20226;-59
2024/04/01 10:17:37;;;;;;;37.63;8.27;;;;;;;23.68;34.03;98699.72;5053190;28;20210;-60
2024/04/01 10:20:51;;;;;;;47.22;7.20;;;;;;;23.45;35.03;98706.91;5015459;28;20404;-60
2024/04/01 10:24:10;;;;;;;46.70;7.97;;;;;;;23.23;35.36;98707.91;4989010;28;20216;-62
2024/04/01 10:26:54;;;;;;;34.83;7.05;;;;;;;23.15;35.58;98701.50;5038182;28;20202;-61
2024/04/01 10:29:56;;;;;;;40.85;7.85;;;;;;;23.24;35.48;98699.09;5053205;28;20621;-59
2024/04/01 10:33:15;;;;;;;37.95;8.05;;;;;;;23.12;35.31;98696.53;5051249;28;20217;-65
2024/04/01 10:36:04;;;;;;;37.00;7.13;;;;;;;23.20;35.45;98688.00;5053068;28;20218;-59
2024/04/01 10:39:00;;;;;;;39.55;7.32;;;;;;;23.57;35.19;98675.16;5052993;28;20206;-60
2024/04/01 10:41:59;;;;;;;40.97;8.02;;;;;;;24.06;34.82;98673.47;5052919;28;20645;-61
2024/04/01 10:44:52;;;;;;;34.95;7.85;;;;;;;24.61;33.89;98672.13;5053076;28;20645;-60
2024/04/01 10:47:55;;;;;;;40.97;8.25;;;;;;;24.58;33.38;98655.63;5052722;28;20206;-62
2024/04/01 10:50:59;;;;;;;36.25;7.05;;;;;;;24.37;34.14;98664.59;5040600;28;20618;-60
2024/04/01 10:53:55;;;;;;;44.30;7.85;;;;;;;24.56;34.00;98662.03;5052821;28;20719;-59
2024/04/01 10:57:03;;;;;;;32.63;7.70;;;;;;;24.80;33.39;98664.19;5052660;28;20210;-60
2024/04/01 11:00:05;;;;;;;39.55;7.57;;;;;;;25.14;33.18;98663.69;5052982;28;20573;-60
2024/04/01 11:03:25;;;;;;;39.10;7.53;;;;;;;25.30;32.01;98664.75;5037246;28;20224;-58
2024/04/01 11:06:23;;;;;;;43.05;8.02;;;;;;;25.42;31.15;98668.03;5052203;28;20209;-61
2024/04/01 11:09:03;;;;;;;36.80;6.32;;;;;;;25.33;31.47;98676.81;5052538;28;20566;-59
2024/04/01 11:11:39;;;;;;;36.90;7.28;;;;;;;25.29;31.90;98680.72;5052525;28;20715;-59
2024/04/01 11:14:09;;;;;;;35.85;7.72;;;;;;;25.29;32.05;98676.25;5052077;28;20236;-60
2024/04/01 11:16:41;;;;;;;36.05;6.72;;;;;;;25.23;31.54;98687.41;5051408;28;20268;-60
2024/04/01 11:19:39;;;;;;;37.35;7.63;;;;;;;25.14;30.71;98666.34;5051845;28;20238;-59
2024/04/01 11:22:11;;;;;;;36.80;7.45;;;;;;;24.99;31.34;98661.50;5052090;28;20221;-62
2024/04/01 11:24:48;;;;;;;31.55;6.13;;;;;;;25.00;31.89;98660.53;5052062;28;20584;-60
2024/04/01 11:27:29;;;;;;;41.20;7.18;;;;;;;25.21;32.02;98655.06;5051811;28;20216;-60
2024/04/01 11:30:22;;;;;;;30.75;5.78;;;;;;;25.46;31.48;98642.19;5052109;28;20264;-62
2024/04/01 11:32:55;;;;;;;40.17;7.63;;;;;;;25.63;31.70;98644.06;5066846;28;20225;-60
2024/04/01 11:35:38;;;;;;;33.17;7.25;;;;;;;25.66;30.46;98637.63;5051840;28;20255;-66
2024/04/01 11:38:20;;;;;;;33.97;7.43;;;;;;;25.54;30.48;98637.84;5051741;28;20660;-68
2024/04/01 11:40:50;;;;;;;38.70;7.05;;;;;;;25.54;31.02;98629.94;5052154;28;20209;-64